createdAt,value
2023-04-02T00:01:02.106Z,3.85
2023-04-02T00:03:44.490Z,3.35
2023-04-02T00:06:30.267Z,3.50
2023-04-02T00:09:04.716Z,3.41
2023-04-02T00:11:37.533Z,3.63
2023-04-02T00:14:16.730Z,3.57
2023-04-02T00:16:44.406Z,3.73
2023-04-02T00:19:24.504Z,3.35
2023-04-02T00:21:52.460Z,3.50
2023-04-02T00:24:22.002Z,3.70
2023-04-02T00:26:53.432Z,3.55
2023-04-02T00:29:20.716Z,3.65
2023-04-02T00:31:52.590Z,3.38
2023-04-02T00:34:27.445Z,3.46
2023-04-02T00:36:54.988Z,3.56
2023-04-02T00:39:28.549Z,3.53
2023-04-02T00:42:06.417Z,3.63
2023-04-02T00:44:37.995Z,3.61
2023-04-02T00:47:17.243Z,3.44
2023-04-02T00:49:44.300Z,3.51
2023-04-02T00:52:18.575Z,3.44
2023-04-02T00:54:50.999Z,2.91
2023-04-02T00:57:25.630Z,2.90
2023-04-02T01:00:20.128Z,2.78
2023-04-02T01:03:13.172Z,2.74
2023-04-02T01:05:42.598Z,2.95
2023-04-02T01:08:31.423Z,2.96
2023-04-02T01:11:13.909Z,3.09
2023-04-02T01:14:12.941Z,3.06
2023-04-02T01:17:04.296Z,2.99
2023-04-02T01:19:45.944Z,2.86
2023-04-02T01:22:51.145Z,2.69
2023-04-02T01:25:40.452Z,2.87
2023-04-02T01:28:10.723Z,3.00
2023-04-02T01:30:37.758Z,2.87
2023-04-02T01:33:07.274Z,2.66
2023-04-02T01:35:38.981Z,2.83
2023-04-02T01:38:40.656Z,2.71
2023-04-02T01:41:33.592Z,2.81
2023-04-02T01:44:08.257Z,2.89
2023-04-02T01:46:40.761Z,2.66
2023-04-02T01:49:26.005Z,2.48
2023-04-02T01:51:56.721Z,2.47
2023-04-02T01:54:26.000Z,2.41
2023-04-02T01:56:52.950Z,2.43
2023-04-02T01:59:22.474Z,2.49
2023-04-02T02:01:54.294Z,2.66
2023-04-02T02:04:21.040Z,2.62
2023-04-02T02:06:48.324Z,2.80
2023-04-02T02:09:23.700Z,2.84
2023-04-02T02:11:51.542Z,2.90
2023-04-02T02:14:22.134Z,2.97
2023-04-02T02:16:50.185Z,2.91
2023-04-02T02:19:35.733Z,2.94
2023-04-02T02:22:29.848Z,2.99
2023-04-02T02:24:58.803Z,3.03
2023-04-02T02:27:28.764Z,2.97
2023-04-02T02:30:17.514Z,2.75
2023-04-02T02:32:53.146Z,2.76
2023-04-02T02:35:32.287Z,2.74
2023-04-02T02:38:26.721Z,2.52
2023-04-02T02:40:57.603Z,2.41
2023-04-02T02:43:26.810Z,2.60
2023-04-02T02:45:55.855Z,2.49
2023-04-02T02:48:32.133Z,2.61
2023-04-02T02:51:00.455Z,2.38
2023-04-02T02:53:31.354Z,1.93
2023-04-02T02:56:01.534Z,2.07
2023-04-02T02:58:32.458Z,2.30
2023-04-02T03:00:59.719Z,2.36
2023-04-02T03:03:29.206Z,2.53
2023-04-02T03:06:02.399Z,2.59
2023-04-02T03:08:34.798Z,2.69
2023-04-02T03:11:26.617Z,2.42
2023-04-02T03:14:00.987Z,2.12
2023-04-02T03:16:43.985Z,2.06
2023-04-02T03:19:40.297Z,2.19
2023-04-02T03:22:15.886Z,2.42
2023-04-02T03:25:30.989Z,2.58
2023-04-02T03:28:06.516Z,2.69
2023-04-02T03:30:43.097Z,2.82
2023-04-02T03:33:17.334Z,2.63
2023-04-02T03:35:57.528Z,2.46
2023-04-02T03:38:40.777Z,2.23
2023-04-02T03:41:34.281Z,2.42
2023-04-02T03:44:21.641Z,2.30
2023-04-02T03:46:59.092Z,2.33
2023-04-02T03:49:38.492Z,2.25
2023-04-02T03:52:20.171Z,2.10
2023-04-02T03:54:53.812Z,2.27
2023-04-02T03:57:34.200Z,2.51
2023-04-02T04:00:30.986Z,2.63
2023-04-02T04:03:06.164Z,2.46
2023-04-02T04:05:38.796Z,2.55
2023-04-02T04:08:14.015Z,2.61
2023-04-02T04:10:42.201Z,2.54
2023-04-02T04:13:15.183Z,2.34
2023-04-02T04:16:08.003Z,2.38
2023-04-02T04:18:47.891Z,2.59
2023-04-02T04:21:31.409Z,2.74
2023-04-02T04:24:06.043Z,2.85
2023-04-02T04:26:49.581Z,2.52
2023-04-02T04:29:54.267Z,2.53
2023-04-02T04:32:50.189Z,2.49
2023-04-02T04:35:26.949Z,2.29
2023-04-02T04:38:03.927Z,2.52
2023-04-02T04:40:35.001Z,2.60
2023-04-02T04:43:07.033Z,2.67
2023-04-02T04:45:56.319Z,2.62
2023-04-02T04:48:27.526Z,2.59
2023-04-02T04:50:59.487Z,2.79
2023-04-02T04:53:28.543Z,3.00
2023-04-02T04:56:06.059Z,3.11
2023-04-02T04:58:49.081Z,3.23
2023-04-02T05:01:22.801Z,3.20
2023-04-02T05:04:12.930Z,2.79
2023-04-02T05:06:44.922Z,2.62
2023-04-02T05:09:36.664Z,2.97
2023-04-02T05:12:32.620Z,3.13
2023-04-02T05:15:26.609Z,2.98
2023-04-02T05:18:16.174Z,2.82
2023-04-02T05:21:00.733Z,3.04
2023-04-02T05:23:30.687Z,3.16
2023-04-02T05:26:09.833Z,2.88
2023-04-02T05:28:48.569Z,2.96
2023-04-02T05:31:36.353Z,3.01
2023-04-02T05:34:03.401Z,3.34
2023-04-02T05:36:31.443Z,3.44
2023-04-02T05:38:59.866Z,3.67
2023-04-02T05:41:29.029Z,3.90
2023-04-02T05:44:05.735Z,4.06
2023-04-02T05:46:37.996Z,4.24
2023-04-02T05:49:10.622Z,4.38
2023-04-02T05:51:43.702Z,4.72
2023-04-02T05:54:23.455Z,4.48
2023-04-02T05:56:56.384Z,4.77
2023-04-02T05:59:37.808Z,5.35
2023-04-02T06:02:22.379Z,5.63
2023-04-02T06:05:07.436Z,5.90
2023-04-02T06:08:29.476Z,5.87
2023-04-02T06:11:01.761Z,6.05
2023-04-02T06:13:28.939Z,6.21
2023-04-02T06:15:56.310Z,5.95
2023-04-02T06:18:30.360Z,6.21
2023-04-02T06:20:58.552Z,6.24
2023-04-02T06:23:49.679Z,6.54
2023-04-02T06:26:51.564Z,7.07
2023-04-02T06:29:26.901Z,7.37
2023-04-02T06:32:00.379Z,7.72
2023-04-02T06:34:29.393Z,8.24
2023-04-02T06:37:04.049Z,9.34
2023-04-02T06:39:31.273Z,10.22
2023-04-02T06:42:13.609Z,10.62
2023-04-02T06:44:41.095Z,9.70
2023-04-02T06:47:37.470Z,9.98
2023-04-02T06:50:33.630Z,9.80
2023-04-02T06:53:06.348Z,8.64
2023-04-02T06:55:44.337Z,8.63
2023-04-02T06:58:11.111Z,8.17
2023-04-02T07:00:46.645Z,7.93
2023-04-02T07:03:30.178Z,8.01
2023-04-02T07:05:58.382Z,8.43
2023-04-02T07:08:25.266Z,8.56
2023-04-02T07:10:52.371Z,8.38
2023-04-02T07:15:54.020Z,8.66
2023-04-02T07:18:29.141Z,8.60
2023-04-02T07:20:56.775Z,9.01
2023-04-02T07:23:23.772Z,8.85
2023-04-02T07:25:52.087Z,9.36
2023-04-02T07:28:21.391Z,9.15
2023-04-02T07:30:49.239Z,9.23
2023-04-02T07:33:18.999Z,9.44
2023-04-02T07:35:46.272Z,9.49
2023-04-02T07:38:12.980Z,9.55
2023-04-02T07:40:39.975Z,9.85
2023-04-02T07:43:07.467Z,10.16
2023-04-02T07:45:34.786Z,10.55
2023-04-02T07:48:10.592Z,10.83
2023-04-02T07:50:37.312Z,11.18
2023-04-02T07:53:04.461Z,10.97
2023-04-02T07:55:31.480Z,11.31
2023-04-02T07:57:59.783Z,11.47
2023-04-02T08:00:28.904Z,12.01
2023-04-02T08:02:56.425Z,11.90
2023-04-02T08:05:23.360Z,12.70
2023-04-02T08:07:54.882Z,12.18
2023-04-02T08:10:21.811Z,12.57
2023-04-02T08:12:49.589Z,12.80
2023-04-02T08:15:17.259Z,13.52
2023-04-02T08:17:44.561Z,14.26
2023-04-02T08:20:20.639Z,14.44
2023-04-02T08:22:48.449Z,14.92
2023-04-02T08:25:15.505Z,16.00
2023-04-02T08:27:42.289Z,16.29
2023-04-02T08:30:12.620Z,17.18
2023-04-02T08:32:41.230Z,16.99
2023-04-02T08:35:10.138Z,17.56
2023-04-02T08:37:37.359Z,17.40
2023-04-02T08:40:07.229Z,17.02
2023-04-02T08:42:34.003Z,17.69
2023-04-02T08:45:20.864Z,18.75
2023-04-02T08:47:55.527Z,19.13
2023-04-02T08:50:25.045Z,17.02
2023-04-02T08:52:52.297Z,16.39
2023-04-02T08:55:29.939Z,17.77
2023-04-02T08:58:15.422Z,17.44
2023-04-02T09:00:47.157Z,15.96
2023-04-02T09:03:21.440Z,16.32
2023-04-02T09:05:50.974Z,15.49
2023-04-02T09:08:20.612Z,15.24
2023-04-02T09:11:06.057Z,15.95
2023-04-02T09:13:37.741Z,15.83
2023-04-02T09:16:04.423Z,15.65
2023-04-02T09:18:34.228Z,15.32
2023-04-02T09:21:20.993Z,15.81
2023-04-02T09:23:48.818Z,15.39
2023-04-02T09:26:30.700Z,16.60
2023-04-02T09:29:12.827Z,17.26
2023-04-02T09:31:58.525Z,18.46
2023-04-02T09:34:30.820Z,18.52
2023-04-02T09:37:07.368Z,19.72
2023-04-02T09:39:35.635Z,19.00
2023-04-02T09:42:08.523Z,16.95
2023-04-02T09:44:35.678Z,15.83
2023-04-02T09:47:05.863Z,14.67
2023-04-02T09:49:35.741Z,14.39
2023-04-02T09:52:09.097Z,14.10
2023-04-02T09:54:41.809Z,15.01
2023-04-02T09:57:27.193Z,15.41
2023-04-02T10:00:25.300Z,14.48
2023-04-02T10:03:32.910Z,14.65
2023-04-02T10:06:12.130Z,15.07
2023-04-02T10:08:42.481Z,15.18
2023-04-02T10:11:14.183Z,15.56
2023-04-02T10:13:57.466Z,15.56
2023-04-02T10:16:39.149Z,15.97
2023-04-02T10:19:15.757Z,15.80
2023-04-02T10:21:45.815Z,15.54
2023-04-02T10:24:15.984Z,15.89
2023-04-02T10:26:59.158Z,16.60
2023-04-02T10:29:49.168Z,17.12
2023-04-02T10:32:25.679Z,17.12
2023-04-02T10:35:03.666Z,16.37
2023-04-02T10:37:46.149Z,16.34
2023-04-02T10:40:24.840Z,15.53
2023-04-02T10:43:48.724Z,16.30
2023-04-02T10:46:57.645Z,16.34
2023-04-02T10:49:36.233Z,15.91
2023-04-02T10:52:17.079Z,15.91
2023-04-02T10:54:47.055Z,16.09
2023-04-02T10:57:22.412Z,17.06
2023-04-02T11:00:11.413Z,16.72
2023-04-02T11:02:38.184Z,16.32
2023-04-02T11:05:31.714Z,16.53
2023-04-02T11:08:27.658Z,16.23
2023-04-02T11:10:54.272Z,16.30
2023-04-02T11:13:36.180Z,16.19
2023-04-02T11:16:03.871Z,15.97
2023-04-02T11:18:36.070Z,16.20
2023-04-02T11:21:57.948Z,17.04
2023-04-02T11:24:46.084Z,17.73
2023-04-02T11:27:14.754Z,18.68
2023-04-02T11:29:52.568Z,17.71
2023-04-02T11:32:24.139Z,17.35
2023-04-02T11:35:06.526Z,16.88
2023-04-02T11:37:35.795Z,16.15
2023-04-02T11:40:11.857Z,16.93
2023-04-02T11:42:45.051Z,16.39
2023-04-02T11:45:23.770Z,15.81
2023-04-02T11:48:03.932Z,15.97
2023-04-02T11:50:32.102Z,15.40
2023-04-02T11:53:21.678Z,14.25
2023-04-02T11:55:58.704Z,14.39
2023-04-02T11:58:43.764Z,14.20
2023-04-02T12:01:30.265Z,15.06
2023-04-02T12:04:34.570Z,14.75
2023-04-02T12:07:20.649Z,14.58
2023-04-02T12:09:52.526Z,14.43
2023-04-02T12:12:32.060Z,14.42
2023-04-02T12:15:00.599Z,14.03
2023-04-02T12:17:38.966Z,14.19
2023-04-02T12:20:09.672Z,14.37
2023-04-02T12:22:41.234Z,14.80
2023-04-02T12:25:32.758Z,15.23
2023-04-02T12:28:18.764Z,14.95
2023-04-02T12:30:51.168Z,14.97
2023-04-02T12:33:37.392Z,14.87
2023-04-02T12:36:05.762Z,14.88
2023-04-02T12:38:43.837Z,15.51
2023-04-02T12:41:26.527Z,15.47
2023-04-02T12:44:18.100Z,15.95
2023-04-02T12:46:46.530Z,16.29
2023-04-02T12:49:28.458Z,16.58
2023-04-02T12:51:56.432Z,16.19
2023-04-02T12:54:24.026Z,15.55
2023-04-02T12:56:51.413Z,15.97
2023-04-02T12:59:31.357Z,16.06
2023-04-02T13:02:00.733Z,15.26
2023-04-02T13:04:27.834Z,14.97
2023-04-02T13:06:55.910Z,14.50
2023-04-02T13:09:34.339Z,14.51
2023-04-02T13:12:02.482Z,14.64
2023-04-02T13:14:30.418Z,14.72
2023-04-02T13:16:57.320Z,14.68
2023-04-02T13:19:27.478Z,14.72
2023-04-02T13:21:55.862Z,15.20
2023-04-02T13:24:31.587Z,14.57
2023-04-02T13:27:03.077Z,14.29
2023-04-02T13:29:35.106Z,14.40
2023-04-02T13:32:09.629Z,14.50
2023-04-02T13:34:36.375Z,14.31
2023-04-02T13:37:03.250Z,13.70
2023-04-02T13:39:30.559Z,13.66
2023-04-02T13:41:59.792Z,13.59
2023-04-02T13:44:32.032Z,13.70
2023-04-02T13:46:59.909Z,14.26
2023-04-02T13:49:27.641Z,14.33
2023-04-02T13:52:00.019Z,14.65
2023-04-02T13:54:38.729Z,15.08
2023-04-02T13:57:06.335Z,15.17
2023-04-02T13:59:33.129Z,15.14
2023-04-02T14:02:09.204Z,14.71
2023-04-02T14:04:44.837Z,14.31
2023-04-02T14:07:26.104Z,14.46
2023-04-02T14:09:53.959Z,14.56
2023-04-02T14:12:35.833Z,14.09
2023-04-02T14:15:05.421Z,13.85
2023-04-02T14:17:53.559Z,13.89
2023-04-02T14:20:35.174Z,14.25
2023-04-02T14:23:20.514Z,14.57
2023-04-02T14:25:47.052Z,14.88
2023-04-02T14:28:26.959Z,14.71
2023-04-02T14:31:34.273Z,14.61
2023-04-02T14:34:38.444Z,14.39
2023-04-02T14:37:30.990Z,14.23
2023-04-02T14:40:36.966Z,13.89
2023-04-02T14:43:27.657Z,14.01
2023-04-02T14:46:01.732Z,14.12
2023-04-02T14:48:50.430Z,13.95
2023-04-02T14:51:36.374Z,13.78
2023-04-02T14:54:13.545Z,13.71
2023-04-02T14:57:11.574Z,13.38
2023-04-02T14:59:59.150Z,13.17
2023-04-02T15:02:45.070Z,13.56
2023-04-02T15:05:21.358Z,13.59
2023-04-02T15:08:00.942Z,13.28
2023-04-02T15:10:45.881Z,13.03
2023-04-02T15:13:20.099Z,13.25
2023-04-02T15:15:52.622Z,13.18
2023-04-02T15:18:19.356Z,13.36
2023-04-02T15:20:54.753Z,13.27
2023-04-02T15:23:51.720Z,13.25
2023-04-02T15:26:33.959Z,13.02
2023-04-02T15:29:28.410Z,13.07
2023-04-02T15:32:06.040Z,12.93
2023-04-02T15:34:51.716Z,12.86
2023-04-02T15:37:31.231Z,12.84
2023-04-02T15:40:35.640Z,12.62
2023-04-02T15:43:38.255Z,12.61
2023-04-02T15:46:22.337Z,12.54
2023-04-02T15:49:12.945Z,12.41
2023-04-02T15:51:59.542Z,12.38
2023-04-02T15:54:41.259Z,12.48
2023-04-02T15:57:26.867Z,12.47
2023-04-02T16:00:28.011Z,12.43
2023-04-02T16:03:27.169Z,12.48
2023-04-02T16:06:17.178Z,12.41
2023-04-02T16:09:18.103Z,12.21
2023-04-02T16:11:47.080Z,12.23
2023-04-02T16:14:22.741Z,11.99
2023-04-02T16:16:51.921Z,12.07
2023-04-02T16:19:32.466Z,12.01
2023-04-02T16:22:26.130Z,11.93
2023-04-02T16:25:07.752Z,11.88
2023-04-02T16:27:51.464Z,11.78
2023-04-02T16:30:37.269Z,11.74
2023-04-02T16:33:16.226Z,11.80
2023-04-02T16:36:21.494Z,11.71
2023-04-02T16:38:59.346Z,11.69
2023-04-02T16:41:36.236Z,11.71
2023-04-02T16:44:31.334Z,11.60
2023-04-02T16:47:14.234Z,11.48
2023-04-02T16:49:52.642Z,11.60
2023-04-02T16:52:41.101Z,11.50
2023-04-02T16:55:34.882Z,11.53
2023-04-02T16:58:21.996Z,11.52
2023-04-02T17:00:56.214Z,11.42
2023-04-02T17:03:56.382Z,11.37
2023-04-02T17:06:42.425Z,11.06
2023-04-02T17:09:16.429Z,11.23
2023-04-02T17:11:43.149Z,11.25
2023-04-02T17:14:39.133Z,10.69
2023-04-02T17:17:05.972Z,10.78
2023-04-02T17:19:44.788Z,10.74
2023-04-02T17:22:20.806Z,10.48
2023-04-02T17:24:57.809Z,10.29
2023-04-02T17:27:30.306Z,10.17
2023-04-02T17:30:04.500Z,10.05
2023-04-02T17:32:33.732Z,10.03
2023-04-02T17:35:18.100Z,9.94
2023-04-02T17:38:16.923Z,9.91
2023-04-02T17:40:54.912Z,9.74
2023-04-02T17:43:46.175Z,9.69
2023-04-02T17:46:34.733Z,9.65
2023-04-02T17:49:44.502Z,9.52
2023-04-02T17:52:34.894Z,9.51
2023-04-02T17:55:16.211Z,9.44
2023-04-02T17:58:01.659Z,9.43
2023-04-02T18:00:34.803Z,9.21
2023-04-02T18:03:52.933Z,9.18
2023-04-02T18:06:31.045Z,9.18
2023-04-02T18:09:14.741Z,9.09
2023-04-02T18:11:56.872Z,9.12
2023-04-02T18:14:38.205Z,8.85
2023-04-02T18:17:22.796Z,8.90
2023-04-02T18:19:49.455Z,8.71
2023-04-02T18:22:53.614Z,8.65
2023-04-02T18:25:47.472Z,8.59
2023-04-02T18:28:36.312Z,8.52
2023-04-02T18:31:28.914Z,8.55
2023-04-02T18:34:07.763Z,7.81
2023-04-02T18:36:46.473Z,8.01
2023-04-02T18:39:46.812Z,8.16
2023-04-02T18:42:38.661Z,8.13
2023-04-02T18:45:14.612Z,8.16
2023-04-02T18:47:53.906Z,8.14
2023-04-02T18:50:39.387Z,8.05
2023-04-02T18:53:17.825Z,8.06
2023-04-02T18:56:04.446Z,7.95
2023-04-02T18:58:49.454Z,7.42
2023-04-02T19:01:24.005Z,7.24
2023-04-02T19:04:01.999Z,7.37
2023-04-02T19:06:43.967Z,7.22
2023-04-02T19:09:20.749Z,7.42
2023-04-02T19:11:49.552Z,7.52
2023-04-02T19:14:18.423Z,7.54
2023-04-02T19:17:04.465Z,7.03
2023-04-02T19:19:45.330Z,7.09
2023-04-02T19:22:29.585Z,7.13
2023-04-02T19:25:12.292Z,7.16
2023-04-02T19:27:53.803Z,7.12
2023-04-02T19:30:26.611Z,7.09
2023-04-02T19:32:56.319Z,7.01
2023-04-02T19:35:37.391Z,6.99
2023-04-02T19:38:10.010Z,6.68
2023-04-02T19:40:51.664Z,6.73
2023-04-02T19:43:18.418Z,6.72
2023-04-02T19:45:48.434Z,6.72
2023-04-02T19:48:23.686Z,6.65
2023-04-02T19:50:50.599Z,6.47
2023-04-02T19:53:18.547Z,6.38
2023-04-02T19:55:46.208Z,6.19
2023-04-02T19:58:35.071Z,6.18
2023-04-02T20:01:02.756Z,6.28
2023-04-02T20:03:30.924Z,6.44
2023-04-02T20:05:59.688Z,6.45
2023-04-02T20:08:27.771Z,6.45
2023-04-02T20:10:55.795Z,6.42
2023-04-02T20:13:22.681Z,6.39
2023-04-02T20:15:51.851Z,6.43
2023-04-02T20:18:22.718Z,6.25
2023-04-02T20:20:49.928Z,6.33
2023-04-02T20:23:17.906Z,6.44
2023-04-02T20:25:46.882Z,6.48
2023-04-02T20:28:14.215Z,6.57
2023-04-02T20:30:41.377Z,6.65
2023-04-02T20:33:08.507Z,6.68
2023-04-02T20:35:35.749Z,6.57
2023-04-02T20:38:06.464Z,6.55
2023-04-02T20:40:34.185Z,6.17
2023-04-02T20:43:01.426Z,6.33
2023-04-02T20:45:29.383Z,6.08
2023-04-02T20:47:56.797Z,5.99
2023-04-02T20:50:23.884Z,5.97
2023-04-02T20:52:51.762Z,6.05
2023-04-02T20:55:18.879Z,6.19
2023-04-02T20:57:45.715Z,6.23
2023-04-02T21:00:13.647Z,6.27
2023-04-02T21:02:40.480Z,6.30
2023-04-02T21:05:07.874Z,6.16
2023-04-02T21:07:34.610Z,5.88
2023-04-02T21:10:01.792Z,5.69
2023-04-02T21:12:31.597Z,5.69
2023-04-02T21:15:01.753Z,5.65
2023-04-02T21:17:31.148Z,5.61
2023-04-02T21:19:57.965Z,5.61
2023-04-02T21:22:24.717Z,5.56
2023-04-02T21:24:51.460Z,5.39
2023-04-02T21:27:18.164Z,5.47
2023-04-02T21:29:44.899Z,5.47
2023-04-02T21:32:20.686Z,5.57
2023-04-02T21:34:48.276Z,5.57
2023-04-02T21:37:14.993Z,5.35
2023-04-02T21:39:41.721Z,5.53
2023-04-02T21:42:08.606Z,5.07
2023-04-02T21:44:35.282Z,5.05
2023-04-02T21:47:02.007Z,5.03
2023-04-02T21:49:29.816Z,5.05
2023-04-02T21:51:56.703Z,4.98
2023-04-02T21:54:23.799Z,4.94
2023-04-02T21:56:50.503Z,4.85
2023-04-02T21:59:18.251Z,4.65
2023-04-02T22:01:50.543Z,4.80
2023-04-02T22:04:20.864Z,4.93
2023-04-02T22:06:48.127Z,5.01
2023-04-02T22:09:21.656Z,4.82
2023-04-02T22:11:51.044Z,4.70
2023-04-02T22:14:17.931Z,4.80
2023-04-02T22:16:44.774Z,4.71
2023-04-02T22:19:14.461Z,4.86
2023-04-02T22:21:41.938Z,4.88
2023-04-02T22:24:12.204Z,4.87
2023-04-02T22:26:40.499Z,4.99
2023-04-02T22:29:07.965Z,4.98
2023-04-02T22:31:35.324Z,4.87
2023-04-02T22:34:03.611Z,4.77
2023-04-02T22:36:30.861Z,4.81
2023-04-02T22:38:59.147Z,4.57
2023-04-02T22:41:28.865Z,4.51
2023-04-02T22:43:56.988Z,4.57
2023-04-02T22:46:25.007Z,4.58
2023-04-02T22:48:55.729Z,4.48
2023-04-02T22:51:24.439Z,4.51
2023-04-02T22:53:56.237Z,4.46
2023-04-02T22:56:31.917Z,4.43
2023-04-02T22:58:59.361Z,4.46
2023-04-02T23:01:32.625Z,4.31
2023-04-02T23:03:59.747Z,4.40
2023-04-02T23:06:27.301Z,4.36
2023-04-02T23:08:54.189Z,4.35
2023-04-02T23:11:23.658Z,4.45
2023-04-02T23:13:52.415Z,4.46
2023-04-02T23:16:23.177Z,4.51
2023-04-02T23:18:50.324Z,4.45
2023-04-02T23:21:18.185Z,4.40
2023-04-02T23:23:46.164Z,4.17
2023-04-02T23:26:19.765Z,4.23
2023-04-02T23:28:46.524Z,4.25
2023-04-02T23:31:16.433Z,4.16
2023-04-02T23:33:43.923Z,4.22
2023-04-02T23:36:14.880Z,4.01
2023-04-02T23:38:41.597Z,3.68
2023-04-02T23:41:08.259Z,3.84
2023-04-02T23:43:34.999Z,3.98
2023-04-02T23:46:02.139Z,4.10
2023-04-02T23:48:28.879Z,4.19
2023-04-02T23:50:56.260Z,4.05
2023-04-02T23:53:23.505Z,3.91
2023-04-02T23:55:50.267Z,4.09
2023-04-02T23:58:17.046Z,4.19
